createdAt,value
2019-03-10T00:00:09.209Z,56.07
2019-03-10T00:02:38.326Z,56.72
2019-03-10T00:05:07.645Z,56.58
2019-03-10T00:07:36.687Z,56.92
2019-03-10T00:10:07.000Z,57.50
2019-03-10T00:12:36.117Z,56.98
2019-03-10T00:15:05.392Z,57.18
2019-03-10T00:17:34.465Z,57.00
2019-03-10T00:20:03.553Z,56.82
2019-03-10T00:22:32.626Z,57.62
2019-03-10T00:25:01.823Z,57.51
2019-03-10T00:27:31.607Z,58.12
2019-03-10T00:30:00.625Z,57.65
2019-03-10T00:32:29.731Z,57.81
2019-03-10T00:34:59.159Z,58.10
2019-03-10T00:37:28.106Z,58.35
2019-03-10T00:42:14.305Z,58.28
2019-03-10T00:45:14.364Z,58.67
2019-03-10T00:47:55.104Z,58.37
2019-03-10T00:50:33.630Z,59.58
2019-03-10T00:53:02.845Z,58.83
2019-03-10T00:55:31.911Z,58.96
2019-03-10T00:58:01.115Z,59.28
2019-03-10T01:00:30.360Z,59.69
2019-03-10T01:19:44.728Z,61.21
2019-03-10T01:22:13.770Z,61.18
2019-03-10T01:41:27.585Z,61.19
2019-03-10T01:43:56.674Z,60.54
2019-03-10T01:46:25.727Z,61.37
2019-03-10T01:48:54.717Z,60.52
2019-03-10T01:51:23.851Z,60.45
2019-03-10T01:53:52.878Z,60.71
2019-03-10T01:56:22.488Z,61.23
2019-03-10T01:58:51.543Z,60.81
2019-03-10T02:01:20.708Z,61.36
2019-03-10T02:03:49.704Z,60.97
2019-03-10T02:06:18.777Z,61.16
2019-03-10T02:08:47.898Z,61.58
2019-03-10T02:11:17.090Z,61.23
2019-03-10T02:13:46.216Z,60.92
2019-03-10T02:16:15.304Z,61.32
2019-03-10T02:18:44.396Z,61.97
2019-03-10T02:21:13.514Z,61.53
2019-03-10T02:23:42.673Z,61.44
2019-03-10T02:26:11.697Z,61.86
2019-03-10T02:28:41.533Z,61.38
2019-03-10T02:31:10.588Z,62.20
2019-03-10T02:33:39.687Z,61.57
2019-03-10T02:36:09.282Z,61.63
2019-03-10T02:38:38.285Z,61.78
2019-03-10T02:41:07.382Z,61.89
2019-03-10T02:43:36.511Z,61.13
2019-03-10T02:46:05.573Z,61.54
2019-03-10T02:48:34.668Z,62.38
2019-03-10T02:51:03.746Z,63.62
2019-03-10T02:53:35.570Z,62.84
2019-03-10T02:56:04.666Z,62.97
2019-03-10T02:58:33.609Z,62.15
2019-03-10T03:01:02.650Z,62.03
2019-03-10T03:03:31.751Z,61.46
2019-03-10T03:06:00.738Z,60.27
2019-03-10T03:08:29.870Z,60.22
2019-03-10T03:10:58.933Z,60.46
2019-03-10T03:13:27.990Z,60.88
2019-03-10T03:15:57.061Z,60.58
2019-03-10T03:18:26.202Z,59.94
2019-03-10T03:20:55.271Z,61.02
2019-03-10T03:23:24.368Z,60.92
2019-03-10T03:25:53.377Z,60.82
2019-03-10T03:28:22.472Z,60.93
2019-03-10T03:30:51.572Z,61.16
2019-03-10T03:33:20.702Z,60.85
2019-03-10T03:35:55.235Z,61.18
2019-03-10T03:38:28.765Z,61.33
2019-03-10T03:41:00.553Z,61.46
2019-03-10T03:43:29.673Z,61.45
2019-03-10T03:45:59.563Z,60.89
2019-03-10T03:48:29.626Z,62.05
2019-03-10T03:50:58.702Z,61.78
2019-03-10T03:53:27.686Z,62.58
2019-03-10T03:55:56.963Z,61.74
2019-03-10T03:58:26.115Z,61.68
2019-03-10T04:01:00.541Z,61.52
2019-03-10T04:03:29.589Z,62.07
2019-03-10T04:05:58.676Z,62.12
2019-03-10T04:08:27.669Z,61.67
2019-03-10T04:10:56.760Z,61.64
2019-03-10T04:13:25.877Z,62.05
2019-03-10T04:15:55.032Z,62.25
2019-03-10T04:18:24.247Z,62.13
2019-03-10T04:20:53.247Z,62.67
2019-03-10T04:23:22.397Z,62.35
2019-03-10T04:25:51.439Z,62.56
2019-03-10T04:28:20.452Z,61.90
2019-03-10T04:30:55.771Z,62.08
2019-03-10T04:33:24.901Z,62.55
2019-03-10T04:52:38.657Z,62.65
2019-03-10T04:55:13.105Z,62.28
2019-03-10T04:57:46.311Z,62.98
2019-03-10T05:00:15.386Z,62.92
2019-03-10T05:02:44.408Z,62.09
2019-03-10T05:05:13.481Z,62.36
2019-03-10T05:07:42.500Z,61.90
2019-03-10T05:26:56.368Z,59.11
2019-03-10T05:46:10.503Z,58.42
2019-03-10T05:48:39.583Z,57.74
2019-03-10T05:51:08.629Z,57.23
2019-03-10T05:53:37.620Z,56.66
2019-03-10T05:56:06.692Z,56.23
2019-03-10T05:58:35.709Z,56.20
2019-03-10T06:01:04.612Z,56.31
2019-03-10T06:03:33.644Z,56.60
2019-03-10T06:06:02.701Z,57.13
2019-03-10T06:08:31.793Z,56.34
2019-03-10T06:11:00.805Z,55.44
2019-03-10T06:30:15.732Z,53.85
2019-03-10T06:32:44.754Z,53.48
2019-03-10T06:35:14.437Z,53.30
2019-03-10T06:37:43.492Z,52.90
2019-03-10T06:40:12.618Z,52.49
2019-03-10T06:42:41.690Z,52.66
2019-03-10T06:45:10.865Z,54.83
2019-03-10T06:47:39.962Z,56.02
2019-03-10T06:50:12.249Z,56.37
2019-03-10T06:52:39.520Z,55.90
2019-03-10T06:55:08.709Z,55.92
2019-03-10T07:14:24.882Z,52.46
2019-03-10T07:16:57.452Z,52.08
2019-03-10T07:19:26.598Z,52.55
2019-03-10T07:21:57.456Z,52.26
2019-03-10T07:24:27.388Z,52.10
2019-03-10T07:26:57.090Z,50.04
2019-03-10T07:29:29.161Z,50.08
2019-03-10T07:32:02.227Z,50.62
2019-03-10T07:57:13.894Z,45.45
2019-03-10T07:59:50.189Z,44.16
2019-03-10T08:02:24.045Z,44.62
2019-03-10T08:05:09.366Z,38.52
2019-03-10T08:26:56.836Z,35.90
2019-03-10T08:31:34.160Z,33.28
2019-03-10T08:50:53.556Z,32.06
2019-03-10T08:53:28.689Z,32.40
2019-03-10T08:56:04.555Z,32.62
2019-03-10T08:58:37.101Z,32.54
2019-03-10T09:02:15.028Z,32.60
2019-03-10T09:04:53.218Z,32.15
2019-03-10T09:07:58.648Z,32.54
2019-03-10T09:10:36.693Z,31.78
2019-03-10T09:13:11.110Z,31.53
2019-03-10T09:15:50.180Z,31.19
2019-03-10T09:19:27.112Z,31.52
2019-03-10T09:22:03.421Z,31.04
2019-03-10T09:25:09.661Z,30.94
2019-03-10T09:28:16.265Z,29.43
2019-03-10T09:30:50.405Z,29.28
2019-03-10T09:33:28.686Z,29.62
2019-03-10T09:36:08.724Z,29.21
2019-03-10T09:38:54.906Z,28.80
2019-03-10T09:42:27.900Z,28.01
2019-03-10T09:45:02.117Z,28.95
2019-03-10T09:47:40.060Z,28.68
2019-03-10T09:50:18.576Z,27.25
2019-03-10T09:55:01.923Z,27.23
2019-03-10T09:57:36.048Z,28.12
2019-03-10T10:00:12.902Z,29.38
2019-03-10T10:04:51.495Z,28.06
2019-03-10T10:07:25.731Z,27.61
2019-03-10T10:10:02.006Z,27.87
2019-03-10T10:12:35.339Z,27.25
2019-03-10T10:16:10.581Z,27.91
2019-03-10T10:38:04.603Z,24.49
2019-03-10T10:41:37.826Z,23.55
2019-03-10T10:45:10.026Z,23.73
2019-03-10T10:47:50.997Z,23.51
2019-03-10T10:51:24.232Z,23.83
2019-03-10T10:54:03.441Z,24.54
2019-03-10T10:56:46.487Z,24.26
2019-03-10T10:59:24.675Z,25.01
2019-03-10T11:02:14.524Z,24.03
2019-03-10T11:04:51.502Z,22.99
2019-03-10T11:07:27.697Z,23.25
2019-03-10T11:10:03.866Z,23.77
2019-03-10T11:12:47.006Z,22.86
2019-03-10T11:15:21.917Z,23.33
2019-03-10T11:18:08.903Z,23.13
2019-03-10T11:23:32.386Z,22.89
2019-03-10T11:26:09.540Z,23.32
2019-03-10T11:28:47.508Z,22.46
2019-03-10T11:31:24.558Z,22.05
2019-03-10T11:33:57.697Z,22.13
2019-03-10T11:36:37.792Z,22.04
2019-03-10T11:39:16.316Z,21.64
2019-03-10T11:41:50.613Z,21.37
2019-03-10T11:44:34.588Z,21.58
2019-03-10T11:47:07.710Z,20.84
2019-03-10T11:49:47.766Z,20.67
2019-03-10T11:52:22.970Z,20.46
2019-03-10T11:55:28.347Z,20.01
2019-03-10T11:58:01.535Z,20.63
2019-03-10T12:00:41.600Z,20.63
2019-03-10T12:03:16.764Z,20.76
2019-03-10T12:07:58.325Z,20.40
2019-03-10T12:10:27.579Z,21.49
2019-03-10T12:12:56.577Z,21.07
2019-03-10T12:15:25.721Z,21.04
2019-03-10T12:17:54.695Z,20.31
2019-03-10T12:20:23.760Z,20.15
2019-03-10T12:22:52.812Z,20.24
2019-03-10T12:25:21.949Z,19.75
2019-03-10T12:27:50.983Z,19.25
2019-03-10T12:30:20.036Z,19.55
2019-03-10T12:32:49.073Z,18.97
2019-03-10T12:35:18.108Z,18.61
2019-03-10T12:37:47.859Z,19.05
2019-03-10T12:40:16.845Z,18.79
2019-03-10T12:42:45.909Z,18.40
2019-03-10T12:45:15.038Z,18.77
2019-03-10T12:47:44.116Z,18.57
2019-03-10T12:50:13.244Z,19.18
2019-03-10T12:52:48.635Z,20.54
2019-03-10T12:55:17.714Z,18.82
2019-03-10T12:57:46.635Z,18.81
2019-03-10T13:00:15.752Z,19.60
2019-03-10T13:02:44.792Z,19.38
2019-03-10T13:05:13.951Z,18.96
2019-03-10T13:07:43.012Z,18.83
2019-03-10T13:10:12.824Z,18.67
2019-03-10T13:12:41.214Z,18.72
2019-03-10T13:15:10.697Z,18.95
2019-03-10T13:17:39.728Z,19.14
2019-03-10T13:20:09.070Z,19.02
2019-03-10T13:22:38.076Z,18.28
2019-03-10T13:25:07.609Z,19.21
2019-03-10T13:27:36.659Z,18.61
2019-03-10T13:46:51.835Z,17.77
2019-03-10T13:49:21.589Z,18.32
2019-03-10T13:51:50.687Z,17.88
2019-03-10T13:54:19.827Z,17.62
2019-03-10T13:56:48.889Z,16.64
2019-03-10T13:59:17.978Z,18.66
2019-03-10T14:01:47.696Z,17.01
2019-03-10T14:04:16.807Z,17.94
2019-03-10T14:06:45.984Z,17.74
2019-03-10T14:09:14.974Z,17.62
2019-03-10T14:11:44.070Z,17.46
2019-03-10T14:14:13.213Z,17.20
2019-03-10T14:16:42.507Z,15.57
2019-03-10T14:19:11.613Z,16.87
2019-03-10T14:21:40.682Z,16.51
2019-03-10T14:24:09.986Z,15.86
2019-03-10T14:26:39.109Z,15.31
2019-03-10T14:29:08.173Z,14.41
2019-03-10T14:31:37.109Z,16.39
2019-03-10T14:34:06.197Z,16.16
2019-03-10T14:36:35.258Z,16.23
2019-03-10T14:39:05.109Z,17.67
2019-03-10T14:41:34.149Z,18.94
2019-03-10T14:44:03.321Z,18.19
2019-03-10T14:46:32.393Z,18.53
2019-03-10T14:49:01.460Z,19.05
2019-03-10T14:51:30.545Z,19.30
2019-03-10T14:53:59.709Z,19.14
2019-03-10T14:56:28.937Z,19.34
2019-03-10T14:58:57.758Z,18.93
2019-03-10T15:01:27.019Z,19.06
2019-03-10T15:03:56.040Z,19.23
2019-03-10T15:06:25.178Z,19.61
2019-03-10T15:08:54.519Z,19.92
2019-03-10T15:11:23.627Z,20.28
2019-03-10T15:13:53.046Z,20.65
2019-03-10T15:16:22.304Z,20.70
2019-03-10T15:18:51.385Z,19.63
2019-03-10T15:21:20.413Z,19.08
2019-03-10T15:23:49.532Z,18.85
2019-03-10T15:26:19.014Z,19.08
2019-03-10T15:28:50.377Z,19.30
2019-03-10T15:31:17.448Z,19.13
2019-03-10T15:33:46.628Z,19.38
2019-03-10T15:36:20.237Z,19.20
2019-03-10T15:38:45.156Z,19.34
2019-03-10T15:41:14.228Z,19.07
2019-03-10T15:43:43.329Z,19.26
2019-03-10T15:46:12.441Z,19.33
2019-03-10T15:48:41.404Z,19.20
2019-03-10T15:51:11.135Z,19.72
2019-03-10T15:53:40.236Z,20.06
2019-03-10T15:56:09.386Z,19.07
2019-03-10T15:58:38.402Z,19.54
2019-03-10T16:01:07.272Z,19.37
2019-03-10T16:03:36.393Z,19.49
2019-03-10T16:06:05.701Z,19.14
2019-03-10T16:08:34.817Z,19.26
2019-03-10T16:11:03.864Z,19.51
2019-03-10T16:13:32.972Z,19.20
2019-03-10T16:16:01.971Z,20.32
2019-03-10T16:18:30.980Z,19.38
2019-03-10T16:21:00.190Z,18.83
2019-03-10T16:23:29.340Z,18.28
2019-03-10T16:25:58.550Z,16.94
2019-03-10T16:28:27.657Z,17.34
2019-03-10T16:30:56.768Z,17.50
2019-03-10T16:33:25.852Z,17.60
2019-03-10T16:35:55.072Z,17.41
2019-03-10T16:38:24.145Z,16.90
2019-03-10T16:40:53.248Z,16.67
2019-03-10T16:43:22.361Z,16.76
2019-03-10T16:45:51.454Z,17.25
2019-03-10T16:48:20.560Z,17.12
2019-03-10T16:50:49.623Z,18.13
2019-03-10T16:53:18.778Z,18.99
2019-03-10T16:55:47.823Z,19.27
2019-03-10T16:58:17.011Z,18.60
2019-03-10T17:00:46.375Z,18.83
2019-03-10T17:03:15.421Z,19.27
2019-03-10T17:05:45.153Z,18.67
2019-03-10T17:08:14.041Z,19.45
2019-03-10T17:10:43.185Z,19.49
2019-03-10T17:13:12.061Z,19.50
2019-03-10T17:15:41.133Z,19.88
2019-03-10T17:18:10.178Z,20.13
2019-03-10T17:20:41.454Z,20.17
2019-03-10T17:23:10.754Z,20.65
2019-03-10T17:25:40.668Z,20.67
2019-03-10T17:28:09.808Z,20.30
2019-03-10T17:30:38.774Z,21.30
2019-03-10T17:33:07.895Z,20.09
2019-03-10T17:35:37.055Z,20.59
2019-03-10T17:38:06.177Z,20.97
2019-03-10T17:40:35.114Z,21.08
2019-03-10T17:43:04.285Z,21.43
2019-03-10T17:45:33.399Z,20.39
2019-03-10T17:48:02.540Z,20.49
2019-03-10T17:50:31.699Z,20.88
2019-03-10T17:53:00.829Z,21.40
2019-03-10T17:55:29.788Z,21.62
2019-03-10T17:57:58.845Z,22.42
2019-03-10T18:00:28.016Z,21.90
2019-03-10T18:19:41.459Z,23.69
2019-03-10T18:22:10.593Z,24.10
2019-03-10T18:41:24.561Z,25.41
2019-03-10T18:43:53.573Z,25.31
2019-03-10T18:46:22.608Z,25.65
2019-03-10T18:48:51.773Z,25.56
2019-03-10T18:51:21.026Z,25.78
2019-03-10T18:53:50.096Z,25.64
2019-03-10T18:56:19.145Z,25.50
2019-03-10T18:58:48.400Z,25.66
2019-03-10T19:01:17.506Z,26.27
2019-03-10T19:03:46.645Z,26.15
2019-03-10T19:06:15.689Z,26.08
2019-03-10T19:08:44.785Z,25.97
2019-03-10T19:11:13.728Z,26.41
2019-03-10T19:13:42.793Z,26.66
2019-03-10T19:16:11.908Z,26.34
2019-03-10T19:18:41.007Z,26.54
2019-03-10T19:21:09.957Z,26.58
2019-03-10T19:23:39.100Z,26.24
2019-03-10T19:26:08.328Z,26.66
2019-03-10T19:28:37.347Z,26.47
2019-03-10T19:31:06.603Z,27.53
2019-03-10T19:33:35.772Z,27.25
2019-03-10T19:36:04.941Z,27.31
2019-03-10T19:38:33.938Z,26.81
2019-03-10T19:57:47.149Z,27.48
2019-03-10T20:00:16.883Z,27.84
2019-03-10T20:02:46.006Z,28.02
2019-03-10T20:05:15.247Z,27.72
2019-03-10T20:07:45.208Z,28.27
2019-03-10T20:10:14.716Z,28.07
2019-03-10T20:12:43.854Z,27.39
2019-03-10T20:15:14.595Z,28.02
2019-03-10T20:17:43.571Z,27.91
2019-03-10T20:20:14.338Z,27.68
2019-03-10T20:22:43.339Z,27.68
2019-03-10T20:25:12.537Z,28.07
2019-03-10T20:27:41.698Z,28.33
2019-03-10T20:30:13.331Z,28.94
2019-03-10T20:32:42.414Z,28.31
2019-03-10T20:35:11.554Z,27.73
2019-03-10T20:37:40.658Z,27.59
2019-03-10T20:40:10.833Z,27.81
2019-03-10T20:42:39.924Z,27.72
2019-03-10T20:45:09.020Z,28.17
2019-03-10T20:47:38.221Z,28.43
2019-03-10T20:50:08.117Z,28.73
2019-03-10T20:52:37.503Z,27.88
2019-03-10T20:55:06.977Z,27.16
2019-03-10T20:57:36.052Z,27.30
2019-03-10T21:00:05.965Z,27.38
2019-03-10T21:02:35.064Z,27.08
2019-03-10T21:05:04.489Z,25.88
2019-03-10T21:07:33.582Z,25.66
2019-03-10T21:10:02.681Z,25.89
2019-03-10T21:12:39.817Z,26.99
2019-03-10T21:15:01.189Z,27.67
2019-03-10T21:17:30.266Z,27.84
2019-03-10T21:19:59.947Z,28.10
2019-03-10T21:22:29.125Z,29.07
2019-03-10T21:24:58.144Z,29.50
2019-03-10T21:27:28.333Z,29.99
2019-03-10T21:29:58.079Z,30.20
2019-03-10T21:32:27.181Z,30.60
2019-03-10T21:34:56.277Z,30.10
2019-03-10T21:37:25.422Z,29.89
2019-03-10T21:39:54.522Z,29.97
2019-03-10T21:42:23.664Z,30.09
2019-03-10T21:44:53.024Z,30.16
2019-03-10T21:47:22.065Z,30.90
2019-03-10T21:49:51.205Z,31.30
2019-03-10T21:52:20.517Z,31.30
2019-03-10T21:54:49.549Z,30.95
2019-03-10T21:57:18.676Z,31.38
2019-03-10T21:59:47.780Z,31.42
2019-03-10T22:02:16.879Z,30.75
2019-03-10T22:04:45.931Z,30.41
2019-03-10T22:07:15.102Z,30.21
2019-03-10T22:09:44.333Z,29.98
2019-03-10T22:12:13.432Z,29.45
2019-03-10T22:14:42.563Z,29.42
2019-03-10T22:17:11.617Z,29.42
2019-03-10T22:19:40.716Z,29.24
2019-03-10T22:22:09.869Z,29.13
2019-03-10T22:24:39.077Z,28.98
2019-03-10T22:27:08.134Z,28.97
2019-03-10T22:29:37.245Z,29.19
2019-03-10T22:32:06.216Z,29.55
2019-03-10T22:34:35.390Z,29.36
2019-03-10T22:37:04.237Z,29.32
2019-03-10T22:39:33.333Z,29.52
2019-03-10T22:42:02.490Z,30.60
2019-03-10T22:44:31.658Z,30.62
2019-03-10T22:47:00.827Z,31.24
2019-03-10T22:49:29.886Z,31.02
2019-03-10T22:51:59.020Z,31.15
2019-03-10T22:54:28.178Z,30.99
2019-03-10T22:56:57.278Z,30.98
2019-03-10T22:59:26.429Z,31.57
2019-03-10T23:01:55.466Z,31.61
2019-03-10T23:04:24.534Z,32.03
2019-03-10T23:06:53.613Z,32.28
2019-03-10T23:09:22.688Z,32.29
2019-03-10T23:11:52.049Z,32.67
2019-03-10T23:14:21.138Z,32.98
2019-03-10T23:16:52.236Z,33.57
2019-03-10T23:19:19.109Z,33.86
2019-03-10T23:21:48.153Z,34.20
2019-03-10T23:24:17.304Z,34.50
2019-03-10T23:26:46.380Z,34.45
2019-03-10T23:29:16.049Z,34.69
2019-03-10T23:31:45.140Z,34.96
2019-03-10T23:34:14.224Z,36.33
2019-03-10T23:36:43.371Z,36.25
2019-03-10T23:39:12.746Z,36.60
2019-03-10T23:41:41.926Z,37.00
2019-03-10T23:44:11.076Z,36.92
2019-03-10T23:46:40.177Z,37.21
2019-03-10T23:49:09.269Z,37.14
2019-03-10T23:51:39.049Z,36.73
2019-03-10T23:54:08.245Z,36.77
2019-03-10T23:56:37.386Z,36.78
2019-03-10T23:59:07.185Z,36.61
